sensor_id;sensor_type;location;lat;lon;timestamp;temperature;humidity
7143;DHT22;3613;48.902;9.204;2023-08-20T00:00:13;21.50;99.90
7143;DHT22;3613;48.902;9.204;2023-08-20T00:02:42;21.40;99.90
7143;DHT22;3613;48.902;9.204;2023-08-20T00:05:08;21.30;99.90
7143;DHT22;3613;48.902;9.204;2023-08-20T00:07:37;21.30;99.90
7143;DHT22;3613;48.902;9.204;2023-08-20T00:10:03;21.30;99.90
7143;DHT22;3613;48.902;9.204;2023-08-20T00:12:31;21.30;99.90
7143;DHT22;3613;48.902;9.204;2023-08-20T00:15:01;21.20;99.90
7143;DHT22;3613;48.902;9.204;2023-08-20T00:17:34;21.30;99.90
7143;DHT22;3613;48.902;9.204;2023-08-20T00:20:00;21.40;99.90
7143;DHT22;3613;48.902;9.204;2023-08-20T00:22:32;21.40;99.90
7143;DHT22;3613;48.902;9.204;2023-08-20T00:25:01;21.40;99.90
7143;DHT22;3613;48.902;9.204;2023-08-20T00:27:28;21.40;99.90
7143;DHT22;3613;48.902;9.204;2023-08-20T00:29:56;21.30;99.90
7143;DHT22;3613;48.902;9.204;2023-08-20T00:32:23;21.50;99.90
7143;DHT22;3613;48.902;9.204;2023-08-20T00:34:51;21.40;99.90
7143;DHT22;3613;48.902;9.204;2023-08-20T00:37:17;21.40;99.90
7143;DHT22;3613;48.902;9.204;2023-08-20T00:39:43;21.40;99.90
7143;DHT22;3613;48.902;9.204;2023-08-20T00:42:11;21.40;99.90
7143;DHT22;3613;48.902;9.204;2023-08-20T00:44:41;21.40;99.90
7143;DHT22;3613;48.902;9.204;2023-08-20T00:47:10;21.40;99.90
7143;DHT22;3613;48.902;9.204;2023-08-20T00:49:36;21.50;99.90
7143;DHT22;3613;48.902;9.204;2023-08-20T00:52:02;21.40;99.90
7143;DHT22;3613;48.902;9.204;2023-08-20T00:54:29;21.40;99.90
7143;DHT22;3613;48.902;9.204;2023-08-20T00:56:54;21.40;99.90
7143;DHT22;3613;48.902;9.204;2023-08-20T00:59:20;21.40;99.90
7143;DHT22;3613;48.902;9.204;2023-08-20T01:01:46;21.40;99.90
7143;DHT22;3613;48.902;9.204;2023-08-20T01:04:14;21.30;99.90
7143;DHT22;3613;48.902;9.204;2023-08-20T01:12:26;21.20;99.90
7143;DHT22;3613;48.902;9.204;2023-08-20T01:14:55;21.10;99.90
7143;DHT22;3613;48.902;9.204;2023-08-20T01:17:24;21.10;99.90
7143;DHT22;3613;48.902;9.204;2023-08-20T01:19:50;21.10;99.90
7143;DHT22;3613;48.902;9.204;2023-08-20T01:30:20;21.10;99.90
7143;DHT22;3613;48.902;9.204;2023-08-20T01:32:49;21.10;99.90
7143;DHT22;3613;48.902;9.204;2023-08-20T01:35:16;21.20;99.90
7143;DHT22;3613;48.902;9.204;2023-08-20T01:37:43;21.10;99.90
7143;DHT22;3613;48.902;9.204;2023-08-20T01:40:09;21.10;99.90
7143;DHT22;3613;48.902;9.204;2023-08-20T01:42:40;21.00;99.90
7143;DHT22;3613;48.902;9.204;2023-08-20T01:45:06;20.90;99.90
7143;DHT22;3613;48.902;9.204;2023-08-20T01:47:33;20.90;99.90
7143;DHT22;3613;48.902;9.204;2023-08-20T01:49:58;20.90;99.90
7143;DHT22;3613;48.902;9.204;2023-08-20T01:52:24;20.90;99.90
7143;DHT22;3613;48.902;9.204;2023-08-20T01:54:50;20.90;99.90
7143;DHT22;3613;48.902;9.204;2023-08-20T01:57:16;20.90;99.90
7143;DHT22;3613;48.902;9.204;2023-08-20T01:59:42;20.90;99.90
7143;DHT22;3613;48.902;9.204;2023-08-20T02:02:08;20.80;99.90
7143;DHT22;3613;48.902;9.204;2023-08-20T02:04:34;20.80;99.90
7143;DHT22;3613;48.902;9.204;2023-08-20T02:07:00;20.80;99.90
7143;DHT22;3613;48.902;9.204;2023-08-20T02:09:25;20.80;99.90
7143;DHT22;3613;48.902;9.204;2023-08-20T02:11:51;20.60;99.90
7143;DHT22;3613;48.902;9.204;2023-08-20T02:14:20;20.70;99.90
7143;DHT22;3613;48.902;9.204;2023-08-20T02:16:48;20.60;99.90
7143;DHT22;3613;48.902;9.204;2023-08-20T02:19:14;20.60;99.90
7143;DHT22;3613;48.902;9.204;2023-08-20T02:21:40;20.50;99.90
7143;DHT22;3613;48.902;9.204;2023-08-20T02:24:06;20.50;99.90
7143;DHT22;3613;48.902;9.204;2023-08-20T02:26:31;20.40;99.90
7143;DHT22;3613;48.902;9.204;2023-08-20T02:28:57;20.50;99.90
7143;DHT22;3613;48.902;9.204;2023-08-20T02:31:23;20.40;99.90
7143;DHT22;3613;48.902;9.204;2023-08-20T02:33:48;20.40;99.90
7143;DHT22;3613;48.902;9.204;2023-08-20T02:36:14;20.40;99.90
7143;DHT22;3613;48.902;9.204;2023-08-20T02:38:40;20.40;99.90
7143;DHT22;3613;48.902;9.204;2023-08-20T02:41:05;20.40;99.90
7143;DHT22;3613;48.902;9.204;2023-08-20T02:43:31;20.30;99.90
7143;DHT22;3613;48.902;9.204;2023-08-20T02:45:59;20.30;99.90
7143;DHT22;3613;48.902;9.204;2023-08-20T02:48:24;20.30;99.90
7143;DHT22;3613;48.902;9.204;2023-08-20T02:50:54;20.20;99.90
7143;DHT22;3613;48.902;9.204;2023-08-20T02:53:20;20.20;99.90
7143;DHT22;3613;48.902;9.204;2023-08-20T02:55:46;20.20;99.90
7143;DHT22;3613;48.902;9.204;2023-08-20T02:58:14;20.10;99.90
7143;DHT22;3613;48.902;9.204;2023-08-20T03:00:40;20.10;99.90
7143;DHT22;3613;48.902;9.204;2023-08-20T03:03:06;20.00;99.90
7143;DHT22;3613;48.902;9.204;2023-08-20T03:05:34;20.20;99.90
7143;DHT22;3613;48.902;9.204;2023-08-20T03:08:00;20.00;99.90
7143;DHT22;3613;48.902;9.204;2023-08-20T03:10:29;20.00;99.90
7143;DHT22;3613;48.902;9.204;2023-08-20T03:12:55;20.10;99.90
7143;DHT22;3613;48.902;9.204;2023-08-20T03:15:21;20.10;99.90
7143;DHT22;3613;48.902;9.204;2023-08-20T03:17:46;20.20;99.90
7143;DHT22;3613;48.902;9.204;2023-08-20T03:20:12;20.00;99.90
7143;DHT22;3613;48.902;9.204;2023-08-20T03:22:38;20.00;99.90
7143;DHT22;3613;48.902;9.204;2023-08-20T03:25:04;20.00;99.90
7143;DHT22;3613;48.902;9.204;2023-08-20T03:27:30;20.00;99.90
7143;DHT22;3613;48.902;9.204;2023-08-20T03:29:58;20.10;99.90
7143;DHT22;3613;48.902;9.204;2023-08-20T03:32:26;20.10;99.90
7143;DHT22;3613;48.902;9.204;2023-08-20T03:34:51;20.10;99.90
7143;DHT22;3613;48.902;9.204;2023-08-20T03:37:19;20.00;99.90
7143;DHT22;3613;48.902;9.204;2023-08-20T03:39:44;20.00;99.90
7143;DHT22;3613;48.902;9.204;2023-08-20T03:42:13;19.90;99.90
7143;DHT22;3613;48.902;9.204;2023-08-20T03:44:38;19.80;99.90
7143;DHT22;3613;48.902;9.204;2023-08-20T03:47:04;19.80;99.90
7143;DHT22;3613;48.902;9.204;2023-08-20T03:49:32;19.80;99.90
7143;DHT22;3613;48.902;9.204;2023-08-20T03:51:58;19.70;99.90
7143;DHT22;3613;48.902;9.204;2023-08-20T03:54:23;19.70;99.90
7143;DHT22;3613;48.902;9.204;2023-08-20T03:56:49;19.70;99.90
7143;DHT22;3613;48.902;9.204;2023-08-20T03:59:17;19.60;99.90
7143;DHT22;3613;48.902;9.204;2023-08-20T04:01:42;19.60;99.90
7143;DHT22;3613;48.902;9.204;2023-08-20T04:04:08;19.50;99.90
7143;DHT22;3613;48.902;9.204;2023-08-20T04:06:33;19.50;99.90
7143;DHT22;3613;48.902;9.204;2023-08-20T04:08:59;19.50;99.90
7143;DHT22;3613;48.902;9.204;2023-08-20T04:11:24;19.50;99.90
7143;DHT22;3613;48.902;9.204;2023-08-20T04:13:52;19.50;99.90
7143;DHT22;3613;48.902;9.204;2023-08-20T04:16:18;19.50;99.90
7143;DHT22;3613;48.902;9.204;2023-08-20T04:18:43;19.60;99.90
7143;DHT22;3613;48.902;9.204;2023-08-20T04:21:09;19.50;99.90
7143;DHT22;3613;48.902;9.204;2023-08-20T04:23:34;19.40;99.90
7143;DHT22;3613;48.902;9.204;2023-08-20T04:26:02;19.40;99.90
7143;DHT22;3613;48.902;9.204;2023-08-20T04:28:30;19.40;99.90
7143;DHT22;3613;48.902;9.204;2023-08-20T04:30:56;19.40;99.90
7143;DHT22;3613;48.902;9.204;2023-08-20T04:33:23;19.40;99.90
7143;DHT22;3613;48.902;9.204;2023-08-20T04:35:49;19.40;99.90
7143;DHT22;3613;48.902;9.204;2023-08-20T04:38:16;19.50;99.90
7143;DHT22;3613;48.902;9.204;2023-08-20T04:40:44;19.60;99.90
7143;DHT22;3613;48.902;9.204;2023-08-20T04:43:10;19.70;99.90
7143;DHT22;3613;48.902;9.204;2023-08-20T04:45:36;19.80;99.90
7143;DHT22;3613;48.902;9.204;2023-08-20T04:48:02;19.90;99.90
7143;DHT22;3613;48.902;9.204;2023-08-20T04:50:27;20.00;99.90
7143;DHT22;3613;48.902;9.204;2023-08-20T04:52:55;20.20;99.90
7143;DHT22;3613;48.902;9.204;2023-08-20T04:55:21;20.40;99.90
7143;DHT22;3613;48.902;9.204;2023-08-20T04:57:46;20.60;99.90
7143;DHT22;3613;48.902;9.204;2023-08-20T05:00:12;20.90;99.90
7143;DHT22;3613;48.902;9.204;2023-08-20T05:02:43;21.30;99.90
7143;DHT22;3613;48.902;9.204;2023-08-20T05:05:11;21.70;99.90
7143;DHT22;3613;48.902;9.204;2023-08-20T05:07:37;22.20;99.90
7143;DHT22;3613;48.902;9.204;2023-08-20T05:10:05;22.70;99.90
7143;DHT22;3613;48.902;9.204;2023-08-20T05:12:30;23.40;99.90
7143;DHT22;3613;48.902;9.204;2023-08-20T05:14:56;24.00;84.50
7143;DHT22;3613;48.902;9.204;2023-08-20T05:17:24;24.60;1.00
7143;DHT22;3613;48.902;9.204;2023-08-20T05:19:50;25.20;1.00
7143;DHT22;3613;48.902;9.204;2023-08-20T05:22:18;25.80;1.00
7143;DHT22;3613;48.902;9.204;2023-08-20T05:24:46;26.40;1.00
7143;DHT22;3613;48.902;9.204;2023-08-20T05:27:15;26.90;1.00
7143;DHT22;3613;48.902;9.204;2023-08-20T05:29:45;27.50;1.00
7143;DHT22;3613;48.902;9.204;2023-08-20T05:32:11;27.70;1.00
7143;DHT22;3613;48.902;9.204;2023-08-20T05:34:37;28.10;1.00
7143;DHT22;3613;48.902;9.204;2023-08-20T05:37:02;28.20;1.00
7143;DHT22;3613;48.902;9.204;2023-08-20T05:39:35;28.20;1.00
7143;DHT22;3613;48.902;9.204;2023-08-20T05:42:02;28.50;1.00
7143;DHT22;3613;48.902;9.204;2023-08-20T05:44:30;28.70;99.90
7143;DHT22;3613;48.902;9.204;2023-08-20T05:46:58;29.00;1.00
7143;DHT22;3613;48.902;9.204;2023-08-20T05:49:24;29.10;1.00
7143;DHT22;3613;48.902;9.204;2023-08-20T05:51:49;29.40;1.00
7143;DHT22;3613;48.902;9.204;2023-08-20T05:54:15;30.10;1.00
7143;DHT22;3613;48.902;9.204;2023-08-20T05:56:41;30.60;99.90
7143;DHT22;3613;48.902;9.204;2023-08-20T05:59:06;31.00;99.90
7143;DHT22;3613;48.902;9.204;2023-08-20T06:01:32;31.70;99.90
7143;DHT22;3613;48.902;9.204;2023-08-20T06:03:57;32.30;99.90
7143;DHT22;3613;48.902;9.204;2023-08-20T06:06:26;32.60;99.90
7143;DHT22;3613;48.902;9.204;2023-08-20T06:08:53;33.00;99.90
7143;DHT22;3613;48.902;9.204;2023-08-20T06:11:20;33.30;99.90
7143;DHT22;3613;48.902;9.204;2023-08-20T06:13:45;33.70;99.90
7143;DHT22;3613;48.902;9.204;2023-08-20T06:16:11;34.30;99.90
7143;DHT22;3613;48.902;9.204;2023-08-20T06:18:39;34.40;99.90
7143;DHT22;3613;48.902;9.204;2023-08-20T06:21:09;34.60;99.90
7143;DHT22;3613;48.902;9.204;2023-08-20T06:23:34;34.80;99.90
7143;DHT22;3613;48.902;9.204;2023-08-20T06:26:02;35.30;99.90
7143;DHT22;3613;48.902;9.204;2023-08-20T06:28:30;34.80;99.90
7143;DHT22;3613;48.902;9.204;2023-08-20T06:30:56;34.00;99.90
7143;DHT22;3613;48.902;9.204;2023-08-20T06:33:26;34.20;99.90
7143;DHT22;3613;48.902;9.204;2023-08-20T06:35:51;35.00;99.90
7143;DHT22;3613;48.902;9.204;2023-08-20T06:38:17;35.50;99.90
7143;DHT22;3613;48.902;9.204;2023-08-20T06:40:45;35.90;99.90
7143;DHT22;3613;48.902;9.204;2023-08-20T06:43:10;36.60;99.90
7143;DHT22;3613;48.902;9.204;2023-08-20T06:45:38;36.90;99.90
7143;DHT22;3613;48.902;9.204;2023-08-20T06:48:04;36.10;99.90
7143;DHT22;3613;48.902;9.204;2023-08-20T06:50:30;34.60;99.90
7143;DHT22;3613;48.902;9.204;2023-08-20T06:52:56;33.50;99.90
7143;DHT22;3613;48.902;9.204;2023-08-20T06:55:22;32.20;99.90
7143;DHT22;3613;48.902;9.204;2023-08-20T06:57:50;31.50;99.90
7143;DHT22;3613;48.902;9.204;2023-08-20T07:00:15;32.10;92.10
7143;DHT22;3613;48.902;9.204;2023-08-20T07:02:43;33.10;99.90
7143;DHT22;3613;48.902;9.204;2023-08-20T07:05:09;34.30;99.90
7143;DHT22;3613;48.902;9.204;2023-08-20T07:07:35;34.10;99.90
7143;DHT22;3613;48.902;9.204;2023-08-20T07:10:00;34.40;99.90
7143;DHT22;3613;48.902;9.204;2023-08-20T07:12:26;35.20;99.90
7143;DHT22;3613;48.902;9.204;2023-08-20T07:14:51;36.00;99.90
7143;DHT22;3613;48.902;9.204;2023-08-20T07:17:20;36.60;99.90
7143;DHT22;3613;48.902;9.204;2023-08-20T07:19:45;37.10;99.90
7143;DHT22;3613;48.902;9.204;2023-08-20T07:22:13;37.00;99.90
7143;DHT22;3613;48.902;9.204;2023-08-20T07:24:41;37.10;99.90
7143;DHT22;3613;48.902;9.204;2023-08-20T07:27:07;36.80;99.90
7143;DHT22;3613;48.902;9.204;2023-08-20T07:29:37;36.30;99.90
7143;DHT22;3613;48.902;9.204;2023-08-20T07:32:03;36.50;99.90
7143;DHT22;3613;48.902;9.204;2023-08-20T07:34:32;36.30;99.90
7143;DHT22;3613;48.902;9.204;2023-08-20T07:37:00;36.30;99.90
7143;DHT22;3613;48.902;9.204;2023-08-20T07:39:26;37.30;99.90
7143;DHT22;3613;48.902;9.204;2023-08-20T07:41:54;36.90;99.90
7143;DHT22;3613;48.902;9.204;2023-08-20T07:44:21;36.40;99.90
7143;DHT22;3613;48.902;9.204;2023-08-20T07:46:47;35.20;99.90
7143;DHT22;3613;48.902;9.204;2023-08-20T07:49:15;34.50;99.90
7143;DHT22;3613;48.902;9.204;2023-08-20T07:51:43;33.70;99.90
7143;DHT22;3613;48.902;9.204;2023-08-20T07:54:09;33.00;99.90
7143;DHT22;3613;48.902;9.204;2023-08-20T07:56:34;32.60;99.90
7143;DHT22;3613;48.902;9.204;2023-08-20T07:59:00;32.10;99.90
7143;DHT22;3613;48.902;9.204;2023-08-20T08:01:25;32.30;99.90
7143;DHT22;3613;48.902;9.204;2023-08-20T08:03:51;32.60;27.90
7143;DHT22;3613;48.902;9.204;2023-08-20T08:06:17;33.00;9.00
7143;DHT22;3613;48.902;9.204;2023-08-20T08:08:43;32.90;1.00
7143;DHT22;3613;48.902;9.204;2023-08-20T08:11:09;32.50;1.00
7143;DHT22;3613;48.902;9.204;2023-08-20T08:13:35;33.20;1.00
7143;DHT22;3613;48.902;9.204;2023-08-20T08:16:01;34.80;1.00
7143;DHT22;3613;48.902;9.204;2023-08-20T08:18:29;36.20;1.00
7143;DHT22;3613;48.902;9.204;2023-08-20T08:20:57;36.70;99.90
7143;DHT22;3613;48.902;9.204;2023-08-20T08:23:24;37.50;99.90
7143;DHT22;3613;48.902;9.204;2023-08-20T08:25:50;37.40;99.90
7143;DHT22;3613;48.902;9.204;2023-08-20T08:28:15;37.40;99.90
7143;DHT22;3613;48.902;9.204;2023-08-20T08:30:41;37.10;99.90
7143;DHT22;3613;48.902;9.204;2023-08-20T08:33:09;37.30;99.90
7143;DHT22;3613;48.902;9.204;2023-08-20T08:35:39;37.50;99.90
7143;DHT22;3613;48.902;9.204;2023-08-20T08:38:05;37.30;99.90
7143;DHT22;3613;48.902;9.204;2023-08-20T08:40:31;37.40;99.90
7143;DHT22;3613;48.902;9.204;2023-08-20T08:42:59;37.80;99.90
7143;DHT22;3613;48.902;9.204;2023-08-20T08:45:28;37.80;99.90
7143;DHT22;3613;48.902;9.204;2023-08-20T08:47:54;37.50;99.90
7143;DHT22;3613;48.902;9.204;2023-08-20T08:50:21;37.90;99.90
7143;DHT22;3613;48.902;9.204;2023-08-20T08:52:47;38.00;99.90
7143;DHT22;3613;48.902;9.204;2023-08-20T08:55:15;38.30;99.90
7143;DHT22;3613;48.902;9.204;2023-08-20T08:57:41;37.90;99.90
7143;DHT22;3613;48.902;9.204;2023-08-20T09:00:10;37.60;99.90
7143;DHT22;3613;48.902;9.204;2023-08-20T09:02:35;37.50;99.90
7143;DHT22;3613;48.902;9.204;2023-08-20T09:05:01;37.50;99.90
7143;DHT22;3613;48.902;9.204;2023-08-20T09:07:27;38.00;99.90
7143;DHT22;3613;48.902;9.204;2023-08-20T09:09:58;38.10;99.90
7143;DHT22;3613;48.902;9.204;2023-08-20T09:12:27;37.90;99.90
7143;DHT22;3613;48.902;9.204;2023-08-20T09:14:55;37.60;99.90
7143;DHT22;3613;48.902;9.204;2023-08-20T09:17:26;37.90;99.90
7143;DHT22;3613;48.902;9.204;2023-08-20T09:19:56;38.20;99.90
7143;DHT22;3613;48.902;9.204;2023-08-20T09:22:23;38.00;99.90
7143;DHT22;3613;48.902;9.204;2023-08-20T09:24:56;38.30;99.90
7143;DHT22;3613;48.902;9.204;2023-08-20T09:27:26;38.60;99.90
7143;DHT22;3613;48.902;9.204;2023-08-20T09:29:55;38.80;99.90
7143;DHT22;3613;48.902;9.204;2023-08-20T09:32:27;38.60;99.90
7143;DHT22;3613;48.902;9.204;2023-08-20T09:34:54;38.90;99.90
7143;DHT22;3613;48.902;9.204;2023-08-20T09:37:24;38.90;99.90
7143;DHT22;3613;48.902;9.204;2023-08-20T09:39:50;38.90;99.90
7143;DHT22;3613;48.902;9.204;2023-08-20T09:42:16;39.10;99.90
7143;DHT22;3613;48.902;9.204;2023-08-20T09:44:43;38.70;99.90
7143;DHT22;3613;48.902;9.204;2023-08-20T09:47:10;38.40;99.90
7143;DHT22;3613;48.902;9.204;2023-08-20T09:49:40;38.30;99.90
7143;DHT22;3613;48.902;9.204;2023-08-20T09:52:07;37.80;99.90
7143;DHT22;3613;48.902;9.204;2023-08-20T09:57:36;37.20;99.90
7143;DHT22;3613;48.902;9.204;2023-08-20T10:00:03;36.60;99.90
7143;DHT22;3613;48.902;9.204;2023-08-20T10:02:31;36.60;1.00
7143;DHT22;3613;48.902;9.204;2023-08-20T10:05:02;37.00;1.00
7143;DHT22;3613;48.902;9.204;2023-08-20T10:07:32;36.70;1.00
7143;DHT22;3613;48.902;9.204;2023-08-20T10:09:58;36.50;1.00
7143;DHT22;3613;48.902;9.204;2023-08-20T10:12:27;36.60;1.00
7143;DHT22;3613;48.902;9.204;2023-08-20T10:14:56;36.60;1.00
7143;DHT22;3613;48.902;9.204;2023-08-20T10:17:29;36.60;1.00
7143;DHT22;3613;48.902;9.204;2023-08-20T10:19:58;36.20;1.00
7143;DHT22;3613;48.902;9.204;2023-08-20T10:22:35;36.10;1.00
7143;DHT22;3613;48.902;9.204;2023-08-20T10:25:00;35.70;99.90
7143;DHT22;3613;48.902;9.204;2023-08-20T10:27:32;36.10;99.90
7143;DHT22;3613;48.902;9.204;2023-08-20T10:30:01;36.00;99.90
7143;DHT22;3613;48.902;9.204;2023-08-20T10:33:03;35.80;99.90
7143;DHT22;3613;48.902;9.204;2023-08-20T10:35:47;36.10;99.90
7143;DHT22;3613;48.902;9.204;2023-08-20T10:38:16;36.20;99.90
7143;DHT22;3613;48.902;9.204;2023-08-20T10:40:59;36.00;99.90
7143;DHT22;3613;48.902;9.204;2023-08-20T10:43:39;36.10;99.90
7143;DHT22;3613;48.902;9.204;2023-08-20T10:46:27;35.90;99.90
7143;DHT22;3613;48.902;9.204;2023-08-20T10:49:01;36.10;99.90
7143;DHT22;3613;48.902;9.204;2023-08-20T10:51:38;36.50;99.90
7143;DHT22;3613;48.902;9.204;2023-08-20T10:54:07;37.00;99.90
7143;DHT22;3613;48.902;9.204;2023-08-20T10:56:46;37.10;99.90
7143;DHT22;3613;48.902;9.204;2023-08-20T11:01:46;37.00;99.90
7143;DHT22;3613;48.902;9.204;2023-08-20T11:04:23;37.00;99.90
7143;DHT22;3613;48.902;9.204;2023-08-20T11:06:56;37.20;99.90
7143;DHT22;3613;48.902;9.204;2023-08-20T11:09:24;37.30;99.90
7143;DHT22;3613;48.902;9.204;2023-08-20T11:11:50;37.40;99.90
7143;DHT22;3613;48.902;9.204;2023-08-20T11:14:19;36.60;99.90
7143;DHT22;3613;48.902;9.204;2023-08-20T11:16:48;36.70;99.90
7143;DHT22;3613;48.902;9.204;2023-08-20T11:19:20;36.70;99.90
7143;DHT22;3613;48.902;9.204;2023-08-20T11:21:51;36.30;99.90
7143;DHT22;3613;48.902;9.204;2023-08-20T11:24:17;36.20;99.90
7143;DHT22;3613;48.902;9.204;2023-08-20T11:26:46;36.50;99.90
7143;DHT22;3613;48.902;9.204;2023-08-20T11:29:14;36.10;99.90
7143;DHT22;3613;48.902;9.204;2023-08-20T11:31:48;36.10;99.90
7143;DHT22;3613;48.902;9.204;2023-08-20T11:34:13;36.40;99.90
7143;DHT22;3613;48.902;9.204;2023-08-20T11:36:42;36.30;99.90
7143;DHT22;3613;48.902;9.204;2023-08-20T11:39:08;36.40;99.90
7143;DHT22;3613;48.902;9.204;2023-08-20T11:41:38;36.60;99.90
7143;DHT22;3613;48.902;9.204;2023-08-20T11:44:04;36.90;1.00
7143;DHT22;3613;48.902;9.204;2023-08-20T11:46:30;38.30;99.90
7143;DHT22;3613;48.902;9.204;2023-08-20T11:49:05;37.90;1.00
7143;DHT22;3613;48.902;9.204;2023-08-20T11:51:37;38.30;99.90
7143;DHT22;3613;48.902;9.204;2023-08-20T11:54:12;38.70;99.90
7143;DHT22;3613;48.902;9.204;2023-08-20T11:59:17;39.50;99.90
7143;DHT22;3613;48.902;9.204;2023-08-20T12:01:49;39.60;99.90
7143;DHT22;3613;48.902;9.204;2023-08-20T12:04:17;39.60;99.90
7143;DHT22;3613;48.902;9.204;2023-08-20T12:06:42;39.40;99.90
7143;DHT22;3613;48.902;9.204;2023-08-20T12:09:24;39.30;99.90
7143;DHT22;3613;48.902;9.204;2023-08-20T12:11:51;40.10;99.90
7143;DHT22;3613;48.902;9.204;2023-08-20T12:14:18;40.60;99.90
7143;DHT22;3613;48.902;9.204;2023-08-20T12:16:44;40.40;99.90
7143;DHT22;3613;48.902;9.204;2023-08-20T12:19:10;40.60;99.90
7143;DHT22;3613;48.902;9.204;2023-08-20T12:21:38;40.40;99.90
7143;DHT22;3613;48.902;9.204;2023-08-20T12:24:04;40.50;99.90
7143;DHT22;3613;48.902;9.204;2023-08-20T12:26:32;40.90;99.90
7143;DHT22;3613;48.902;9.204;2023-08-20T12:28:58;41.20;99.90
7143;DHT22;3613;48.902;9.204;2023-08-20T12:31:25;41.40;99.90
7143;DHT22;3613;48.902;9.204;2023-08-20T12:33:51;40.20;99.90
7143;DHT22;3613;48.902;9.204;2023-08-20T12:36:19;40.30;99.90
7143;DHT22;3613;48.902;9.204;2023-08-20T12:38:49;40.80;99.90
7143;DHT22;3613;48.902;9.204;2023-08-20T12:41:18;40.30;99.90
7143;DHT22;3613;48.902;9.204;2023-08-20T12:43:44;39.70;99.90
7143;DHT22;3613;48.902;9.204;2023-08-20T12:46:10;39.90;99.90
7143;DHT22;3613;48.902;9.204;2023-08-20T12:48:35;38.90;99.90
7143;DHT22;3613;48.902;9.204;2023-08-20T12:51:03;38.90;99.90
7143;DHT22;3613;48.902;9.204;2023-08-20T12:53:32;39.50;99.90
7143;DHT22;3613;48.902;9.204;2023-08-20T12:55:57;39.80;99.90
7143;DHT22;3613;48.902;9.204;2023-08-20T12:58:23;40.20;99.90
7143;DHT22;3613;48.902;9.204;2023-08-20T13:00:52;40.20;99.90
7143;DHT22;3613;48.902;9.204;2023-08-20T13:03:18;40.10;99.90
7143;DHT22;3613;48.902;9.204;2023-08-20T13:05:47;39.20;99.90
7143;DHT22;3613;48.902;9.204;2023-08-20T13:08:12;38.20;99.90
7143;DHT22;3613;48.902;9.204;2023-08-20T13:10:42;38.00;99.90
7143;DHT22;3613;48.902;9.204;2023-08-20T13:13:21;37.90;99.90
7143;DHT22;3613;48.902;9.204;2023-08-20T13:15:51;37.80;99.90
7143;DHT22;3613;48.902;9.204;2023-08-20T13:18:17;37.60;99.90
7143;DHT22;3613;48.902;9.204;2023-08-20T13:20:45;37.10;99.90
7143;DHT22;3613;48.902;9.204;2023-08-20T13:23:11;36.50;99.90
7143;DHT22;3613;48.902;9.204;2023-08-20T13:25:41;36.10;99.90
7143;DHT22;3613;48.902;9.204;2023-08-20T13:28:08;35.90;99.90
7143;DHT22;3613;48.902;9.204;2023-08-20T13:30:34;35.90;99.90
7143;DHT22;3613;48.902;9.204;2023-08-20T13:33:00;35.60;99.90
7143;DHT22;3613;48.902;9.204;2023-08-20T13:35:26;35.60;99.90
7143;DHT22;3613;48.902;9.204;2023-08-20T13:37:53;35.30;99.90
7143;DHT22;3613;48.902;9.204;2023-08-20T13:40:19;35.10;99.90
7143;DHT22;3613;48.902;9.204;2023-08-20T13:42:48;34.80;99.90
7143;DHT22;3613;48.902;9.204;2023-08-20T13:45:13;34.60;1.00
7143;DHT22;3613;48.902;9.204;2023-08-20T13:47:42;34.60;1.00
7143;DHT22;3613;48.902;9.204;2023-08-20T13:50:09;34.50;1.00
7143;DHT22;3613;48.902;9.204;2023-08-20T13:52:35;34.40;1.00
7143;DHT22;3613;48.902;9.204;2023-08-20T13:55:03;34.00;99.90
7143;DHT22;3613;48.902;9.204;2023-08-20T13:57:29;34.00;1.00
7143;DHT22;3613;48.902;9.204;2023-08-20T13:59:57;33.90;1.00
7143;DHT22;3613;48.902;9.204;2023-08-20T14:02:25;33.80;99.90
7143;DHT22;3613;48.902;9.204;2023-08-20T14:04:50;33.80;99.90
7143;DHT22;3613;48.902;9.204;2023-08-20T14:07:18;33.80;99.90
7143;DHT22;3613;48.902;9.204;2023-08-20T14:09:48;33.50;99.90
7143;DHT22;3613;48.902;9.204;2023-08-20T14:12:16;33.40;99.90
7143;DHT22;3613;48.902;9.204;2023-08-20T14:14:42;33.20;99.90
7143;DHT22;3613;48.902;9.204;2023-08-20T14:17:08;33.20;99.90
7143;DHT22;3613;48.902;9.204;2023-08-20T14:19:36;33.30;1.00
7143;DHT22;3613;48.902;9.204;2023-08-20T14:22:01;33.40;1.00
7143;DHT22;3613;48.902;9.204;2023-08-20T14:24:27;33.40;1.00
7143;DHT22;3613;48.902;9.204;2023-08-20T14:26:53;33.20;1.00
7143;DHT22;3613;48.902;9.204;2023-08-20T14:29:18;33.10;1.00
7143;DHT22;3613;48.902;9.204;2023-08-20T14:31:44;33.10;1.00
7143;DHT22;3613;48.902;9.204;2023-08-20T14:34:12;33.10;99.90
7143;DHT22;3613;48.902;9.204;2023-08-20T14:36:37;33.00;99.90
7143;DHT22;3613;48.902;9.204;2023-08-20T14:39:05;32.90;99.90
7143;DHT22;3613;48.902;9.204;2023-08-20T14:41:33;32.90;99.90
7143;DHT22;3613;48.902;9.204;2023-08-20T14:43:59;32.80;99.90
7143;DHT22;3613;48.902;9.204;2023-08-20T14:46:29;32.80;99.90
7143;DHT22;3613;48.902;9.204;2023-08-20T14:48:55;32.70;99.90
7143;DHT22;3613;48.902;9.204;2023-08-20T14:51:25;32.70;99.90
7143;DHT22;3613;48.902;9.204;2023-08-20T14:53:53;32.70;99.90
7143;DHT22;3613;48.902;9.204;2023-08-20T14:56:19;32.70;99.90
7143;DHT22;3613;48.902;9.204;2023-08-20T14:58:44;32.80;99.90
7143;DHT22;3613;48.902;9.204;2023-08-20T15:01:10;32.80;99.90
7143;DHT22;3613;48.902;9.204;2023-08-20T15:03:38;32.80;99.90
7143;DHT22;3613;48.902;9.204;2023-08-20T15:06:04;32.80;99.90
7143;DHT22;3613;48.902;9.204;2023-08-20T15:08:30;32.80;99.90
7143;DHT22;3613;48.902;9.204;2023-08-20T15:11:00;32.60;99.90
7143;DHT22;3613;48.902;9.204;2023-08-20T15:13:30;32.50;99.90
7143;DHT22;3613;48.902;9.204;2023-08-20T15:15:55;32.50;99.90
7143;DHT22;3613;48.902;9.204;2023-08-20T15:18:23;32.30;99.90
7143;DHT22;3613;48.902;9.204;2023-08-20T15:20:56;32.20;99.90
7143;DHT22;3613;48.902;9.204;2023-08-20T15:23:26;32.10;99.90
7143;DHT22;3613;48.902;9.204;2023-08-20T15:25:53;32.20;99.90
7143;DHT22;3613;48.902;9.204;2023-08-20T15:28:22;32.30;99.90
7143;DHT22;3613;48.902;9.204;2023-08-20T15:30:53;32.30;99.90
7143;DHT22;3613;48.902;9.204;2023-08-20T15:33:21;32.50;99.90
7143;DHT22;3613;48.902;9.204;2023-08-20T15:35:47;32.60;99.90
7143;DHT22;3613;48.902;9.204;2023-08-20T15:38:13;32.60;99.90
7143;DHT22;3613;48.902;9.204;2023-08-20T15:40:41;32.60;99.90
7143;DHT22;3613;48.902;9.204;2023-08-20T15:43:07;32.60;99.90
7143;DHT22;3613;48.902;9.204;2023-08-20T15:45:35;32.60;99.90
7143;DHT22;3613;48.902;9.204;2023-08-20T15:48:03;32.60;99.90
7143;DHT22;3613;48.902;9.204;2023-08-20T15:50:28;32.70;99.90
7143;DHT22;3613;48.902;9.204;2023-08-20T15:52:54;32.80;99.90
7143;DHT22;3613;48.902;9.204;2023-08-20T15:55:22;32.90;99.90
7143;DHT22;3613;48.902;9.204;2023-08-20T15:57:47;32.90;82.40
7143;DHT22;3613;48.902;9.204;2023-08-20T16:00:13;33.00;64.90
7143;DHT22;3613;48.902;9.204;2023-08-20T16:02:43;33.00;41.40
7143;DHT22;3613;48.902;9.204;2023-08-20T16:05:09;32.90;59.60
7143;DHT22;3613;48.902;9.204;2023-08-20T16:07:36;32.90;99.90
7143;DHT22;3613;48.902;9.204;2023-08-20T16:10:02;32.70;99.90
7143;DHT22;3613;48.902;9.204;2023-08-20T16:12:29;32.60;99.90
7143;DHT22;3613;48.902;9.204;2023-08-20T16:14:55;32.50;99.90
7143;DHT22;3613;48.902;9.204;2023-08-20T16:17:21;32.40;99.90
7143;DHT22;3613;48.902;9.204;2023-08-20T16:19:46;32.40;99.90
7143;DHT22;3613;48.902;9.204;2023-08-20T16:22:12;32.30;99.90
7143;DHT22;3613;48.902;9.204;2023-08-20T16:24:38;32.20;99.90
7143;DHT22;3613;48.902;9.204;2023-08-20T16:27:03;32.10;99.90